PWSweather.com
Personal Weather Stations
Station Observations

ChardChardGB

Lat: 50.877408, Lon: -2.94964741

Elevation: 341

Station Type: WS3083

http://www.merriott-astro.co.uk/weather/index.htm

High Low Average
Temperature 65.3°F18.5°F 44.8°F7.1°F 56.6°F13.7°F
Dew Point 58.8°F14.9°F 41.5°F5.3°F 50.9°F10.5°F
Winds 13.1 mph S21.1 mph S Calm Calm 5.6 mph 9.0 mph
Wind Gusts 19.7 mph31.7 mph -- 8.5 mph13.7 mph
Humidity 97% 50% 82%
Pressure 30.36 in1028.10 in 30.10 in1019.30 in -
Precipitation 2.94 in74.70 in - -
Hour Temp Dew Point Humidity Winds Wind Gusts Pressure Precip Precip Rate Daily Precip Total
12:00 AM 56.8°F13.8°C 55.4°F13.0°C 95% 7.6 mph SSE12.2 kmh SSE 10.7 mph17.2 kmh 30.18 in1022.0 mb 0.02 in0.5 mm 0.00 in0.0 mm 0.02 in0.5 mm
12:10 AM 56.8°F13.8°C 55.4°F13.0°C 95% 9.4 mph S15.1 kmh S 13.0 mph20.9 kmh 30.18 in1022.0 mb 0.04 in1.0 mm 0.12 in3.0 mm 0.01 in0.3 mm
12:20 AM 56.8°F13.8°C 55.4°F13.0°C 95% 11.6 mph SSE18.7 kmh SSE 17.4 mph28.0 kmh 30.17 in1021.7 mb 0.02 in0.5 mm 0.00 in0.0 mm 0.01 in0.3 mm
12:30 AM 56.8°F13.8°C 55.4°F13.0°C 95% 9.2 mph S14.8 kmh S 15.2 mph24.5 kmh 30.17 in1021.7 mb 0.02 in0.5 mm 0.00 in0.0 mm 0.02 in0.5 mm
12:40 AM 57.0°F13.9°C 55.6°F13.1°C 95% 9.4 mph S15.1 kmh S 19.7 mph31.7 kmh 30.17 in1021.7 mb 0.04 in1.0 mm 0.12 in3.0 mm 0.04 in1.0 mm
12:50 AM 57.0°F13.9°C 55.6°F13.1°C 95% 9.0 mph SSW14.5 kmh SSW 12.1 mph19.5 kmh 30.17 in1021.7 mb 0.04 in1.0 mm 0.00 in0.0 mm 0.04 in1.0 mm
01:00 AM 57.0°F13.9°C 55.6°F13.1°C 95% 6.0 mph SSW9.7 kmh SSW 9.2 mph14.8 kmh 30.16 in1021.3 mb 0.05 in1.3 mm 0.01 in0.3 mm 0.05 in1.3 mm
01:10 AM 57.0°F13.9°C 55.6°F13.1°C 95% 7.6 mph SSW12.2 kmh SSW 11.4 mph18.3 kmh 30.16 in1021.3 mb 0.04 in1.0 mm 0.00 in0.0 mm 0.05 in1.3 mm
01:20 AM 57.2°F14.0°C 55.8°F13.2°C 95% 10.9 mph SSE17.5 kmh SSE 15.9 mph25.6 kmh 30.16 in1021.3 mb 0.05 in1.3 mm 0.06 in1.5 mm 0.06 in1.5 mm
01:30 AM 57.0°F13.9°C 55.6°F13.1°C 95% 11.2 mph S18.0 kmh S 16.8 mph27.0 kmh 30.14 in1020.7 mb 0.05 in1.3 mm 0.00 in0.0 mm 0.07 in1.8 mm
01:40 AM 56.8°F13.8°C 55.4°F13.0°C 95% 12.4 mph SSW20.0 kmh SSW 18.3 mph29.5 kmh 30.15 in1021.0 mb 0.04 in1.0 mm 0.00 in0.0 mm 0.07 in1.8 mm
01:50 AM 56.8°F13.8°C 55.4°F13.0°C 95% 13.1 mph S21.1 kmh S 19.7 mph31.7 kmh 30.15 in1021.0 mb 0.04 in1.0 mm 0.00 in0.0 mm 0.07 in1.8 mm
02:00 AM 56.8°F13.8°C 55.4°F13.0°C 95% 10.8 mph SSE17.4 kmh SSE 15.2 mph24.5 kmh 30.14 in1020.7 mb 0.04 in1.0 mm 0.00 in0.0 mm 0.08 in2.0 mm
02:10 AM 56.8°F13.8°C 55.4°F13.0°C 95% 11.1 mph S17.9 kmh S 13.6 mph21.9 kmh 30.14 in1020.7 mb 0.04 in1.0 mm 0.00 in0.0 mm 0.08 in2.0 mm
02:20 AM 56.8°F13.8°C 55.4°F13.0°C 95% 9.6 mph SSW15.4 kmh SSW 15.2 mph24.5 kmh 30.15 in1021.0 mb 0.04 in1.0 mm 0.00 in0.0 mm 0.09 in2.3 mm
02:30 AM 56.7°F13.7°C 55.3°F12.9°C 95% 10.4 mph S16.7 kmh S 13.6 mph21.9 kmh 30.14 in1020.7 mb 0.04 in1.0 mm 0.00 in0.0 mm 0.11 in2.8 mm
02:40 AM 56.5°F13.6°C 55.1°F12.8°C 95% 10.0 mph S16.1 kmh S 13.6 mph21.9 kmh 30.14 in1020.7 mb 0.05 in1.3 mm 0.06 in1.5 mm 0.12 in3.0 mm
02:50 AM 56.1°F13.4°C 54.4°F12.4°C 94% 10.3 mph S16.6 kmh S 13.6 mph21.9 kmh 30.14 in1020.7 mb 0.05 in1.3 mm 0.00 in0.0 mm 0.12 in3.0 mm
03:00 AM 56.3°F13.5°C 54.6°F12.6°C 94% 8.1 mph SSE13.0 kmh SSE 9.8 mph15.8 kmh 30.13 in1020.3 mb 0.04 in1.0 mm 0.00 in0.0 mm 0.12 in3.0 mm
03:10 AM 56.5°F13.6°C 54.8°F12.7°C 94% 8.4 mph S13.5 kmh S 13.6 mph21.9 kmh 30.13 in1020.3 mb 0.06 in1.5 mm 0.12 in3.0 mm 0.14 in3.6 mm
03:20 AM 56.5°F13.6°C 55.1°F12.8°C 95% 10.1 mph SE16.3 kmh SE 15.9 mph25.6 kmh 30.13 in1020.3 mb 0.06 in1.5 mm 0.00 in0.0 mm 0.15 in3.8 mm
03:30 AM 56.5°F13.6°C 55.1°F12.8°C 95% 6.6 mph SSW10.6 kmh SSW 9.8 mph15.8 kmh 30.13 in1020.3 mb 0.06 in1.5 mm 0.00 in0.0 mm 0.17 in4.3 mm
03:40 AM 56.5°F13.6°C 55.1°F12.8°C 95% 7.4 mph SSW11.9 kmh SSW 9.8 mph15.8 kmh 30.13 in1020.3 mb 0.05 in1.3 mm 0.00 in0.0 mm 0.17 in4.3 mm
03:50 AM 56.7°F13.7°C 55.3°F12.9°C 95% 6.4 mph SSW10.3 kmh SSW 9.8 mph15.8 kmh 30.12 in1020.0 mb 0.05 in1.3 mm 0.00 in0.0 mm 0.17 in4.3 mm
04:00 AM 56.7°F13.7°C 55.3°F12.9°C 95% 7.2 mph SE11.6 kmh SE 9.8 mph15.8 kmh 30.12 in1020.0 mb 0.06 in1.5 mm 0.01 in0.3 mm 0.18 in4.6 mm
04:10 AM 56.7°F13.7°C 55.3°F12.9°C 95% 5.0 mph SW8.0 kmh SW 15.9 mph25.6 kmh 30.12 in1020.0 mb 0.05 in1.3 mm 0.00 in0.0 mm 0.19 in4.8 mm
04:20 AM 56.8°F13.8°C 55.7°F13.2°C 96% 5.9 mph S9.5 kmh S 10.7 mph17.2 kmh 30.13 in1020.3 mb 0.04 in1.0 mm 0.00 in0.0 mm 0.19 in4.8 mm
04:30 AM 57.0°F13.9°C 55.9°F13.3°C 96% 6.9 mph S11.1 kmh S 10.7 mph17.2 kmh 30.12 in1020.0 mb 0.04 in1.0 mm 0.00 in0.0 mm 0.20 in5.1 mm
04:40 AM 57.0°F13.9°C 55.9°F13.3°C 96% 5.7 mph SE9.2 kmh SE 10.7 mph17.2 kmh 30.12 in1020.0 mb 0.04 in1.0 mm 0.00 in0.0 mm 0.20 in5.1 mm
04:50 AM 56.8°F13.8°C 55.7°F13.2°C 96% 5.5 mph S8.9 kmh S 9.2 mph14.8 kmh 30.11 in1019.6 mb 0.04 in1.0 mm 0.00 in0.0 mm 0.20 in5.1 mm
05:00 AM 56.8°F13.8°C 55.7°F13.2°C 96% 6.7 mph SE10.8 kmh SE 12.1 mph19.5 kmh 30.12 in1020.0 mb 0.02 in0.5 mm 0.00 in0.0 mm 0.21 in5.3 mm
05:10 AM 56.8°F13.8°C 55.7°F13.2°C 96% 7.0 mph SE11.3 kmh SE 11.4 mph18.3 kmh 30.12 in1020.0 mb 0.02 in0.5 mm 0.00 in0.0 mm 0.21 in5.3 mm
05:20 AM 56.8°F13.8°C 55.7°F13.2°C 96% 4.3 mph S6.9 kmh S 8.3 mph13.4 kmh 30.12 in1020.0 mb 0.02 in0.5 mm 0.00 in0.0 mm 0.21 in5.3 mm
05:30 AM 56.8°F13.8°C 55.7°F13.2°C 96% 5.7 mph S9.2 kmh S 9.2 mph14.8 kmh 30.12 in1020.0 mb 0.01 in0.3 mm 0.00 in0.0 mm 0.21 in5.3 mm
05:40 AM 57.0°F13.9°C 55.9°F13.3°C 96% 5.7 mph S9.2 kmh S 12.1 mph19.5 kmh 30.11 in1019.6 mb 0.01 in0.3 mm 0.00 in0.0 mm 0.21 in5.3 mm
05:50 AM 57.2°F14.0°C 56.1°F13.4°C 96% 5.0 mph S8.0 kmh S 6.0 mph9.7 kmh 30.11 in1019.6 mb 0.02 in0.5 mm 0.06 in1.5 mm 0.22 in5.6 mm
06:00 AM 57.2°F14.0°C 56.1°F13.4°C 96% 4.3 mph SE6.9 kmh SE 6.9 mph11.1 kmh 30.12 in1020.0 mb 0.02 in0.5 mm 0.00 in0.0 mm 0.24 in6.1 mm
06:10 AM 57.2°F14.0°C 56.1°F13.4°C 96% 5.1 mph SSE8.2 kmh SSE 7.6 mph12.2 kmh 30.12 in1020.0 mb 0.02 in0.5 mm 0.00 in0.0 mm 0.24 in6.1 mm
06:20 AM 57.2°F14.0°C 56.1°F13.4°C 96% 4.6 mph SE7.4 kmh SE 8.3 mph13.4 kmh 30.11 in1019.6 mb 0.02 in0.5 mm 0.00 in0.0 mm 0.24 in6.1 mm
06:30 AM 57.4°F14.1°C 56.3°F13.5°C 96% 5.4 mph SSE8.7 kmh SSE 8.3 mph13.4 kmh 30.11 in1019.6 mb 0.02 in0.5 mm 0.00 in0.0 mm 0.24 in6.1 mm
06:40 AM 57.4°F14.1°C 56.3°F13.5°C 96% 5.6 mph WSW9.0 kmh WSW 9.2 mph14.8 kmh 30.11 in1019.6 mb 0.02 in0.5 mm 0.00 in0.0 mm 0.24 in6.1 mm
06:50 AM 57.6°F14.2°C 56.4°F13.6°C 96% 7.8 mph S12.6 kmh S 9.8 mph15.8 kmh 30.11 in1019.6 mb 0.01 in0.3 mm 0.00 in0.0 mm 0.24 in6.1 mm
07:00 AM 57.6°F14.2°C 56.4°F13.6°C 96% 7.7 mph S12.4 kmh S 10.7 mph17.2 kmh 30.11 in1019.6 mb 0.00 in0.0 mm 0.00 in0.0 mm 0.24 in6.1 mm
07:10 AM 57.6°F14.2°C 56.4°F13.6°C 96% 6.1 mph S9.8 kmh S 7.6 mph12.2 kmh 30.11 in1019.6 mb 0.00 in0.0 mm 0.00 in0.0 mm 0.24 in6.1 mm
07:20 AM 57.6°F14.2°C 56.4°F13.6°C 96% 6.4 mph SSE10.3 kmh SSE 10.7 mph17.2 kmh 30.11 in1019.6 mb 0.02 in0.5 mm 0.12 in3.0 mm 0.26 in6.6 mm
07:30 AM 57.7°F14.3°C 56.6°F13.7°C 96% 5.7 mph SE9.2 kmh SE 9.8 mph15.8 kmh 30.11 in1019.6 mb 0.02 in0.5 mm 0.00 in0.0 mm 0.26 in6.6 mm
07:40 AM 57.7°F14.3°C 56.6°F13.7°C 96% 6.9 mph SSE11.1 kmh SSE 9.8 mph15.8 kmh 30.12 in1020.0 mb 0.02 in0.5 mm 0.00 in0.0 mm 0.26 in6.6 mm
07:50 AM 57.6°F14.2°C 56.4°F13.6°C 96% 9.9 mph SSW15.9 kmh SSW 15.9 mph25.6 kmh 30.11 in1019.6 mb 0.05 in1.3 mm 0.18 in4.6 mm 0.28 in7.1 mm
08:00 AM 57.7°F14.3°C 56.6°F13.7°C 96% 6.8 mph SSE10.9 kmh SSE 11.4 mph18.3 kmh 30.11 in1019.6 mb 0.05 in1.3 mm 0.00 in0.0 mm 0.28 in7.1 mm
08:10 AM 57.7°F14.3°C 56.6°F13.7°C 96% 6.2 mph S10.0 kmh S 7.6 mph12.2 kmh 30.11 in1019.6 mb 0.06 in1.5 mm 0.06 in1.5 mm 0.30 in7.6 mm
08:20 AM 57.9°F14.4°C 56.8°F13.8°C 96% 8.1 mph S13.0 kmh S 15.2 mph24.5 kmh 30.10 in1019.3 mb 0.04 in1.0 mm 0.00 in0.0 mm 0.30 in7.6 mm
08:30 AM 57.9°F14.4°C 56.8°F13.8°C 96% 8.2 mph SE13.2 kmh SE 13.6 mph21.9 kmh 30.11 in1019.6 mb 0.05 in1.3 mm 0.06 in1.5 mm 0.31 in7.9 mm
08:40 AM 58.1°F14.5°C 57.0°F13.9°C 96% 9.8 mph S15.8 kmh S 14.5 mph23.3 kmh 30.11 in1019.6 mb 0.07 in1.8 mm 0.12 in3.0 mm 0.33 in8.4 mm
08:50 AM 58.1°F14.5°C 57.0°F13.9°C 96% 9.5 mph SSW15.3 kmh SSW 15.9 mph25.6 kmh 30.11 in1019.6 mb 0.06 in1.5 mm 0.00 in0.0 mm 0.34 in8.6 mm
09:00 AM 58.3°F14.6°C 57.2°F14.0°C 96% 7.7 mph S12.4 kmh S 10.7 mph17.2 kmh 30.11 in1019.6 mb 0.08 in2.0 mm 0.02 in0.5 mm 0.37 in9.4 mm
09:10 AM 58.3°F14.6°C 57.4°F14.1°C 97% 8.5 mph S13.7 kmh S 10.7 mph17.2 kmh 30.12 in1020.0 mb 0.11 in2.8 mm 0.18 in4.6 mm 0.40 in10.2 mm
09:20 AM 58.5°F14.7°C 57.6°F14.2°C 97% 8.4 mph SSE13.5 kmh SSE 14.5 mph23.3 kmh 30.11 in1019.6 mb 0.12 in3.0 mm 0.06 in1.5 mm 0.43 in10.9 mm
09:30 AM 58.6°F14.8°C 57.8°F14.3°C 97% 8.2 mph S13.2 kmh S 17.4 mph28.0 kmh 30.11 in1019.6 mb 0.14 in3.6 mm 0.12 in3.0 mm 0.45 in11.4 mm
09:40 AM 58.6°F14.8°C 57.8°F14.3°C 97% 6.6 mph SSW10.6 kmh SSW 13.0 mph20.9 kmh 30.12 in1020.0 mb 0.13 in3.3 mm 0.00 in0.0 mm 0.46 in11.7 mm
09:50 AM 58.8°F14.9°C 58.0°F14.4°C 97% 9.2 mph S14.8 kmh S 16.8 mph27.0 kmh 30.11 in1019.6 mb 0.11 in2.8 mm 0.00 in0.0 mm 0.46 in11.7 mm
10:00 AM 58.8°F14.9°C 58.0°F14.4°C 97% 8.1 mph SSW13.0 kmh SSW 10.7 mph17.2 kmh 30.12 in1020.0 mb 0.09 in2.3 mm 0.00 in0.0 mm 0.47 in11.9 mm
10:10 AM 59.0°F15.0°C 58.2°F14.6°C 97% 5.0 mph S8.0 kmh S 8.3 mph13.4 kmh 30.13 in1020.3 mb 0.06 in1.5 mm 0.00 in0.0 mm 0.47 in11.9 mm
10:20 AM 58.3°F14.6°C 57.2°F14.0°C 96% 6.8 mph WSW10.9 kmh WSW 9.2 mph14.8 kmh 30.13 in1020.3 mb 0.05 in1.3 mm 0.00 in0.0 mm 0.47 in11.9 mm
10:30 AM 59.0°F15.0°C 57.9°F14.4°C 96% 5.1 mph W8.2 kmh W 7.6 mph12.2 kmh 30.13 in1020.3 mb 0.02 in0.5 mm 0.00 in0.0 mm 0.47 in11.9 mm
10:40 AM 60.3°F15.7°C 58.8°F14.9°C 95% 5.3 mph W8.5 kmh W 7.6 mph12.2 kmh 30.14 in1020.7 mb 0.02 in0.5 mm 0.00 in0.0 mm 0.48 in12.2 mm
10:50 AM 60.8°F16.0°C 58.5°F14.7°C 92% 4.9 mph WNW7.9 kmh WNW 7.6 mph12.2 kmh 30.14 in1020.7 mb 0.02 in0.5 mm 0.00 in0.0 mm 0.48 in12.2 mm
11:00 AM 60.8°F16.0°C 57.2°F14.0°C 88% 4.3 mph NW6.9 kmh NW 6.9 mph11.1 kmh 30.14 in1020.7 mb 0.01 in0.3 mm 0.00 in0.0 mm 0.48 in12.2 mm
11:10 AM 60.4°F15.8°C 55.9°F13.3°C 85% 4.8 mph W7.7 kmh W 6.9 mph11.1 kmh 30.13 in1020.3 mb 0.01 in0.3 mm 0.00 in0.0 mm 0.48 in12.2 mm
11:20 AM 61.5°F16.4°C 57.0°F13.9°C 85% 3.7 mph WNW6.0 kmh WNW 6.0 mph9.7 kmh 30.14 in1020.7 mb 0.01 in0.3 mm 0.00 in0.0 mm 0.48 in12.2 mm
11:30 AM 62.2°F16.8°C 56.7°F13.7°C 82% 4.9 mph W7.9 kmh W 7.6 mph12.2 kmh 30.15 in1021.0 mb 0.01 in0.3 mm 0.00 in0.0 mm 0.48 in12.2 mm
11:40 AM 63.3°F17.4°C 57.1°F13.9°C 80% 5.9 mph W9.5 kmh W 7.6 mph12.2 kmh 30.16 in1021.3 mb 0.00 in0.0 mm 0.00 in0.0 mm 0.48 in12.2 mm
11:50 AM 62.8°F17.1°C 55.5°F13.1°C 77% 5.6 mph WSW9.0 kmh WSW 9.2 mph14.8 kmh 30.15 in1021.0 mb 0.00 in0.0 mm 0.00 in0.0 mm 0.48 in12.2 mm
12:00 PM 62.6°F17.0°C 54.9°F12.7°C 76% 6.9 mph W11.1 kmh W 9.8 mph15.8 kmh 30.16 in1021.3 mb 0.00 in0.0 mm 0.00 in0.0 mm 0.48 in12.2 mm
12:10 PM 62.4°F16.9°C 54.4°F12.4°C 75% 6.7 mph W10.8 kmh W 9.2 mph14.8 kmh 30.16 in1021.3 mb 0.00 in0.0 mm 0.00 in0.0 mm 0.48 in12.2 mm
12:20 PM 61.9°F16.6°C 53.5°F11.9°C 74% 7.9 mph W12.7 kmh W 9.8 mph15.8 kmh 30.16 in1021.3 mb 0.00 in0.0 mm 0.00 in0.0 mm 0.48 in12.2 mm
12:30 PM 61.9°F16.6°C 53.5°F11.9°C 74% 7.8 mph WSW12.6 kmh WSW 9.2 mph14.8 kmh 30.16 in1021.3 mb 0.00 in0.0 mm 0.00 in0.0 mm 0.48 in12.2 mm
12:40 PM 61.5°F16.4°C 52.4°F11.3°C 72% 8.7 mph W14.0 kmh W 12.1 mph19.5 kmh 30.16 in1021.3 mb 0.00 in0.0 mm 0.00 in0.0 mm 0.48 in12.2 mm
12:50 PM 61.7°F16.5°C 52.2°F11.2°C 71% 8.5 mph WNW13.7 kmh WNW 10.7 mph17.2 kmh 30.16 in1021.3 mb 0.00 in0.0 mm 0.00 in0.0 mm 0.48 in12.2 mm
01:00 PM 61.5°F16.4°C 52.0°F11.1°C 71% 9.3 mph WNW15.0 kmh WNW 12.1 mph19.5 kmh 30.17 in1021.7 mb 0.00 in0.0 mm 0.00 in0.0 mm 0.48 in12.2 mm
01:10 PM 61.9°F16.6°C 52.0°F11.1°C 70% 9.2 mph WNW14.8 kmh WNW 13.6 mph21.9 kmh 30.17 in1021.7 mb 0.00 in0.0 mm 0.00 in0.0 mm 0.48 in12.2 mm
01:20 PM 61.9°F16.6°C 51.6°F10.9°C 69% 11.5 mph W18.5 kmh W 13.6 mph21.9 kmh 30.18 in1022.0 mb 0.00 in0.0 mm 0.00 in0.0 mm 0.48 in12.2 mm
01:30 PM 62.4°F16.9°C 50.9°F10.5°C 66% 9.4 mph WNW15.1 kmh WNW 12.1 mph19.5 kmh 30.17 in1021.7 mb 0.00 in0.0 mm 0.00 in0.0 mm 0.48 in12.2 mm
01:40 PM 63.1°F17.3°C 50.8°F10.4°C 64% 10.4 mph W16.7 kmh W 13.0 mph20.9 kmh 30.18 in1022.0 mb 0.00 in0.0 mm 0.00 in0.0 mm 0.48 in12.2 mm
01:50 PM 63.5°F17.5°C 49.8°F9.9°C 61% 10.5 mph W16.9 kmh W 13.6 mph21.9 kmh 30.20 in1022.7 mb 0.00 in0.0 mm 0.00 in0.0 mm 0.48 in12.2 mm
02:00 PM 64.0°F17.8°C 49.9°F9.9°C 60% 8.1 mph W13.0 kmh W 10.7 mph17.2 kmh 30.19 in1022.4 mb 0.00 in0.0 mm 0.00 in0.0 mm 0.48 in12.2 mm
02:10 PM 63.9°F17.7°C 49.7°F9.8°C 60% 7.8 mph W12.6 kmh W 11.4 mph18.3 kmh 30.20 in1022.7 mb 0.00 in0.0 mm 0.00 in0.0 mm 0.48 in12.2 mm
02:20 PM 63.7°F17.6°C 49.1°F9.5°C 59% 8.8 mph W14.2 kmh W 10.7 mph17.2 kmh 30.20 in1022.7 mb 0.00 in0.0 mm 0.00 in0.0 mm 0.48 in12.2 mm
02:30 PM 62.8°F17.1°C 47.8°F8.8°C 58% 9.3 mph W15.0 kmh W 12.1 mph19.5 kmh 30.21 in1023.0 mb 0.00 in0.0 mm 0.00 in0.0 mm 0.48 in12.2 mm
02:40 PM 64.2°F17.9°C 45.7°F7.6°C 51% 10.4 mph WNW16.7 kmh WNW 13.6 mph21.9 kmh 30.20 in1022.7 mb 0.00 in0.0 mm 0.00 in0.0 mm 0.48 in12.2 mm
02:50 PM 65.3°F18.5°C 47.2°F8.4°C 52% 8.5 mph WNW13.7 kmh WNW 12.1 mph19.5 kmh 30.21 in1023.0 mb 0.00 in0.0 mm 0.00 in0.0 mm 0.48 in12.2 mm
03:00 PM 64.6°F18.1°C 45.5°F7.5°C 50% 9.1 mph W14.6 kmh W 13.6 mph21.9 kmh 30.21 in1023.0 mb 0.00 in0.0 mm 0.00 in0.0 mm 0.48 in12.2 mm
03:10 PM 64.4°F18.0°C 46.4°F8.0°C 52% 9.3 mph NW15.0 kmh NW 12.1 mph19.5 kmh 30.22 in1023.4 mb 0.00 in0.0 mm 0.00 in0.0 mm 0.48 in12.2 mm
03:20 PM 63.5°F17.5°C 45.1°F7.3°C 51% 8.8 mph WNW14.2 kmh WNW 12.1 mph19.5 kmh 30.22 in1023.4 mb 0.00 in0.0 mm 0.00 in0.0 mm 0.48 in12.2 mm
03:30 PM 62.2°F16.8°C 47.3°F8.5°C 58% 9.4 mph W15.1 kmh W 12.1 mph19.5 kmh 30.22 in1023.4 mb 0.00 in0.0 mm 0.00 in0.0 mm 0.48 in12.2 mm
03:40 PM 61.7°F16.5°C 47.2°F8.4°C 59% 9.6 mph WNW15.4 kmh WNW 13.6 mph21.9 kmh 30.23 in1023.7 mb 0.00 in0.0 mm 0.00 in0.0 mm 0.48 in12.2 mm
03:50 PM 61.0°F16.1°C 47.0°F8.3°C 60% 9.2 mph WNW14.8 kmh WNW 11.4 mph18.3 kmh 30.24 in1024.0 mb 0.00 in0.0 mm 0.00 in0.0 mm 0.48 in12.2 mm
04:00 PM 59.7°F15.4°C 45.8°F7.7°C 60% 8.8 mph WSW14.2 kmh WSW 10.7 mph17.2 kmh 30.25 in1024.4 mb 0.00 in0.0 mm 0.00 in0.0 mm 0.48 in12.2 mm
04:10 PM 58.6°F14.8°C 45.2°F7.3°C 61% 6.8 mph W10.9 kmh W 9.2 mph14.8 kmh 30.25 in1024.4 mb 0.00 in0.0 mm 0.00 in0.0 mm 0.48 in12.2 mm
04:20 PM 57.9°F14.4°C 45.4°F7.4°C 63% 5.4 mph W8.7 kmh W 7.6 mph12.2 kmh 30.25 in1024.4 mb 0.00 in0.0 mm 0.00 in0.0 mm 0.48 in12.2 mm
04:30 PM 57.7°F14.3°C 45.7°F7.6°C 64% 3.7 mph W6.0 kmh W 4.5 mph7.2 kmh 30.25 in1024.4 mb 0.00 in0.0 mm 0.00 in0.0 mm 0.48 in12.2 mm
04:40 PM 57.4°F14.1°C 45.7°F7.6°C 65% 0.8 mph WNW1.3 kmh WNW 3.8 mph6.1 kmh 30.26 in1024.7 mb 0.00 in0.0 mm 0.00 in0.0 mm 0.48 in12.2 mm
04:50 PM 57.9°F14.4°C 46.2°F7.9°C 65% 2.5 mph W4.0 kmh W 6.0 mph9.7 kmh 30.26 in1024.7 mb 0.00 in0.0 mm 0.00 in0.0 mm 0.48 in12.2 mm
05:00 PM 61.0°F16.1°C 47.5°F8.6°C 61% Calm Calm -- 30.26 in1024.7 mb 0.00 in0.0 mm 0.00 in0.0 mm 0.48 in12.2 mm
05:10 PM 63.0°F17.2°C 48.0°F8.9°C 58% 1.0 mph WNW1.6 kmh WNW 3.1 mph5.0 kmh 30.25 in1024.4 mb 0.00 in0.0 mm 0.00 in0.0 mm 0.48 in12.2 mm
05:20 PM 64.4°F18.0°C 46.4°F8.0°C 52% Calm Calm -- 30.26 in1024.7 mb 0.00 in0.0 mm 0.00 in0.0 mm 0.48 in12.2 mm
05:30 PM 64.6°F18.1°C 46.1°F7.8°C 51% 0.8 mph NW1.3 kmh NW 3.1 mph5.0 kmh 30.26 in1024.7 mb 0.00 in0.0 mm 0.00 in0.0 mm 0.48 in12.2 mm
05:40 PM 61.3°F16.3°C 43.6°F6.4°C 52% 5.4 mph WNW8.7 kmh WNW 8.3 mph13.4 kmh 30.27 in1025.1 mb 0.00 in0.0 mm 0.00 in0.0 mm 0.48 in12.2 mm
05:50 PM 59.9°F15.5°C 43.2°F6.2°C 54% 4.6 mph WSW7.4 kmh WSW 6.0 mph9.7 kmh 30.28 in1025.4 mb 0.00 in0.0 mm 0.00 in0.0 mm 0.48 in12.2 mm
06:00 PM 57.7°F14.3°C 43.1°F6.2°C 58% 2.4 mph WNW3.9 kmh WNW 5.4 mph8.7 kmh 30.28 in1025.4 mb 0.00 in0.0 mm 0.00 in0.0 mm 0.48 in12.2 mm
06:10 PM 56.7°F13.7°C 42.9°F6.1°C 60% 2.1 mph NW3.4 kmh NW 6.0 mph9.7 kmh 30.29 in1025.7 mb 0.00 in0.0 mm 0.00 in0.0 mm 0.48 in12.2 mm
06:20 PM 55.9°F13.3°C 42.7°F5.9°C 61% 3.2 mph WNW5.1 kmh WNW 5.4 mph8.7 kmh 30.29 in1025.7 mb 0.00 in0.0 mm 0.00 in0.0 mm 0.48 in12.2 mm
06:30 PM 54.9°F12.7°C 42.1°F5.6°C 62% 0.4 mph W0.6 kmh W 2.2 mph3.5 kmh 30.30 in1026.1 mb 0.00 in0.0 mm 0.00 in0.0 mm 0.48 in12.2 mm
06:40 PM 54.0°F12.2°C 43.6°F6.4°C 68% Calm Calm -- 30.30 in1026.1 mb 0.00 in0.0 mm 0.00 in0.0 mm 0.48 in12.2 mm
06:50 PM 53.4°F11.9°C 43.9°F6.6°C 70% Calm Calm -- 30.30 in1026.1 mb 0.00 in0.0 mm 0.00 in0.0 mm 0.48 in12.2 mm
07:00 PM 52.7°F11.5°C 43.2°F6.2°C 70% Calm Calm -- 30.31 in1026.4 mb 0.00 in0.0 mm 0.00 in0.0 mm 0.48 in12.2 mm
07:10 PM 52.5°F11.4°C 43.8°F6.6°C 72% Calm Calm -- 30.31 in1026.4 mb 0.00 in0.0 mm 0.00 in0.0 mm 0.48 in12.2 mm
07:20 PM 52.0°F11.1°C 43.2°F6.2°C 72% Calm Calm -- 30.31 in1026.4 mb 0.00 in0.0 mm 0.00 in0.0 mm 0.48 in12.2 mm
07:30 PM 50.9°F10.5°C 42.2°F5.7°C 72% Calm Calm -- 30.31 in1026.4 mb 0.00 in0.0 mm 0.00 in0.0 mm 0.48 in12.2 mm
07:40 PM 49.8°F9.9°C 41.5°F5.3°C 73% Calm Calm -- 30.32 in1026.8 mb 0.00 in0.0 mm 0.00 in0.0 mm 0.48 in12.2 mm
07:50 PM 49.6°F9.8°C 42.7°F5.9°C 77% Calm Calm -- 30.32 in1026.8 mb 0.00 in0.0 mm 0.00 in0.0 mm 0.48 in12.2 mm
08:00 PM 49.3°F9.6°C 43.1°F6.2°C 79% Calm Calm -- 30.32 in1026.8 mb 0.00 in0.0 mm 0.00 in0.0 mm 0.48 in12.2 mm
08:10 PM 48.6°F9.2°C 42.4°F5.8°C 79% Calm Calm -- 30.32 in1026.8 mb 0.00 in0.0 mm 0.00 in0.0 mm 0.48 in12.2 mm
08:20 PM 48.6°F9.2°C 42.7°F5.9°C 80% Calm Calm -- 30.33 in1027.1 mb 0.00 in0.0 mm 0.00 in0.0 mm 0.48 in12.2 mm
08:30 PM 48.2°F9.0°C 42.6°F5.9°C 81% Calm Calm -- 30.33 in1027.1 mb 0.00 in0.0 mm 0.00 in0.0 mm 0.48 in12.2 mm
08:40 PM 47.5°F8.6°C 41.6°F5.3°C 80% Calm Calm -- 30.33 in1027.1 mb 0.00 in0.0 mm 0.00 in0.0 mm 0.48 in12.2 mm
08:50 PM 47.8°F8.8°C 42.6°F5.9°C 82% Calm Calm -- 30.33 in1027.1 mb 0.00 in0.0 mm 0.00 in0.0 mm 0.48 in12.2 mm
09:00 PM 48.0°F8.9°C 43.1°F6.2°C 83% Calm Calm -- 30.33 in1027.1 mb 0.00 in0.0 mm 0.00 in0.0 mm 0.48 in12.2 mm
09:10 PM 48.2°F9.0°C 43.3°F6.3°C 83% Calm Calm -- 30.33 in1027.1 mb 0.00 in0.0 mm 0.00 in0.0 mm 0.48 in12.2 mm
09:20 PM 47.7°F8.7°C 42.8°F6.0°C 83% Calm Calm -- 30.33 in1027.1 mb 0.00 in0.0 mm 0.00 in0.0 mm 0.48 in12.2 mm
09:30 PM 47.3°F8.5°C 42.4°F5.8°C 83% 2.3 mph S3.7 kmh S 4.5 mph7.2 kmh 30.34 in1027.4 mb 0.00 in0.0 mm 0.00 in0.0 mm 0.48 in12.2 mm
09:40 PM 46.9°F8.3°C 42.4°F5.8°C 84% 2.2 mph S3.5 kmh S 3.1 mph5.0 kmh 30.34 in1027.4 mb 0.00 in0.0 mm 0.00 in0.0 mm 0.48 in12.2 mm
09:50 PM 46.8°F8.2°C 42.2°F5.7°C 84% 1.7 mph SE2.7 kmh SE 3.1 mph5.0 kmh 30.34 in1027.4 mb 0.00 in0.0 mm 0.00 in0.0 mm 0.48 in12.2 mm
10:00 PM 46.8°F8.2°C 42.5°F5.8°C 85% 1.1 mph S1.8 kmh S 3.1 mph5.0 kmh 30.34 in1027.4 mb 0.00 in0.0 mm 0.00 in0.0 mm 0.48 in12.2 mm
10:10 PM 46.8°F8.2°C 42.8°F6.0°C 86% Calm Calm -- 30.34 in1027.4 mb 0.00 in0.0 mm 0.00 in0.0 mm 0.48 in12.2 mm
10:20 PM 46.8°F8.2°C 42.8°F6.0°C 86% Calm Calm -- 30.35 in1027.8 mb 0.00 in0.0 mm 0.00 in0.0 mm 0.48 in12.2 mm
10:30 PM 46.2°F7.9°C 42.3°F5.7°C 86% 0.4 mph SSW0.6 kmh SSW 2.2 mph3.5 kmh 30.35 in1027.8 mb 0.00 in0.0 mm 0.00 in0.0 mm 0.48 in12.2 mm
10:40 PM 45.9°F7.7°C 41.9°F5.5°C 86% 0.3 mph S0.5 kmh S 1.6 mph2.6 kmh 30.35 in1027.8 mb 0.00 in0.0 mm 0.00 in0.0 mm 0.48 in12.2 mm
10:50 PM 45.7°F7.6°C 41.7°F5.4°C 86% 0.9 mph SSE1.4 kmh SSE 3.1 mph5.0 kmh 30.35 in1027.8 mb 0.00 in0.0 mm 0.00 in0.0 mm 0.48 in12.2 mm
11:00 PM 45.5°F7.5°C 41.6°F5.3°C 86% 0.4 mph S0.6 kmh S 2.2 mph3.5 kmh 30.35 in1027.8 mb 0.00 in0.0 mm 0.00 in0.0 mm 0.48 in12.2 mm
11:10 PM 45.1°F7.3°C 42.7°F5.9°C 91% 0.8 mph S1.3 kmh S 3.1 mph5.0 kmh 30.35 in1027.8 mb 0.00 in0.0 mm 0.00 in0.0 mm 0.48 in12.2 mm
11:20 PM 44.8°F7.1°C 42.3°F5.7°C 91% 0.1 mph SSE0.2 kmh SSE 0.7 mph1.1 kmh 30.35 in1027.8 mb 0.00 in0.0 mm 0.00 in0.0 mm 0.48 in12.2 mm
11:30 PM 44.8°F7.1°C 42.3°F5.7°C 91% Calm Calm -- 30.35 in1027.8 mb 0.00 in0.0 mm 0.00 in0.0 mm 0.48 in12.2 mm
11:40 PM 44.8°F7.1°C 42.6°F5.9°C 92% 0.2 mph SW0.3 kmh SW 1.6 mph2.6 kmh 30.35 in1027.8 mb 0.00 in0.0 mm 0.00 in0.0 mm 0.48 in12.2 mm
11:50 PM 44.8°F7.1°C 42.6°F5.9°C 92% 0.5 mph S0.8 kmh S 2.2 mph3.5 kmh 30.36 in1028.1 mb 0.00 in0.0 mm 0.00 in0.0 mm 0.48 in12.2 mm